Time;durP1;ratioP1;P1;durP2;ratioP2;P2;SDS_P1;SDS_P2;PMS_P1;PMS_P2;Temp;Humidity;BMP_temperature;BMP_pressure;BME280_temperature;BME280_humidity;BME280_pressure;Samples;Min_cycle;Max_cycle;Signal;HPM_P1;HPM_P2
2021/12/10 00:00:18;;;;;;;5.00;3.90;;;;;;;;;;5081683;28;20062;-29
2021/12/10 00:02:46;;;;;;;5.00;3.67;;;;;;;;;;5082390;28;20076;-28
2021/12/10 00:05:31;;;;;;;3.92;3.10;;;;;;;;;;5064180;28;20031;-27
2021/12/10 00:07:57;;;;;;;5.00;3.92;;;;;;;;;;5082102;28;20565;-30
2021/12/10 00:10:30;;;;;;;3.95;3.22;;;;;;;;;;5082655;28;20035;-28
2021/12/10 00:12:55;;;;;;;5.22;3.47;;;;;;;;;;5085961;28;20044;-34
2021/12/10 00:15:26;;;;;;;4.18;3.55;;;;;;;;;;5085856;28;20067;-28
2021/12/10 00:17:52;;;;;;;4.68;3.38;;;;;;;;;;5085661;28;20028;-28
2021/12/10 00:20:18;;;;;;;4.43;3.42;;;;;;;;;;5085697;28;20032;-29
2021/12/10 00:22:55;;;;;;;4.25;2.92;;;;;;;;;;5085732;28;20031;-30
2021/12/10 00:25:23;;;;;;;3.80;3.00;;;;;;;;;;5085755;28;20099;-29
2021/12/10 00:27:49;;;;;;;4.28;3.10;;;;;;;;;;5085512;28;20042;-30
2021/12/10 00:30:23;;;;;;;4.03;3.08;;;;;;;;;;5085596;28;20456;-33
2021/12/10 00:33:02;;;;;;;4.13;3.22;;;;;;;;;;5085083;28;20093;-30
2021/12/10 00:35:29;;;;;;;3.58;2.63;;;;;;;;;;5085385;28;20421;-34
2021/12/10 00:37:54;;;;;;;3.35;2.63;;;;;;;;;;5085329;28;20069;-30
2021/12/10 00:40:21;;;;;;;3.75;2.65;;;;;;;;;;5085262;28;20066;-29
2021/12/10 00:42:46;;;;;;;3.75;2.95;;;;;;;;;;5085256;28;20030;-27
2021/12/10 00:45:13;;;;;;;3.28;2.45;;;;;;;;;;5067318;28;20036;-31
2021/12/10 00:47:39;;;;;;;3.58;2.60;;;;;;;;;;5085339;28;20111;-31
2021/12/10 00:50:07;;;;;;;3.17;2.60;;;;;;;;;;5085253;28;20341;-33
2021/12/10 00:52:32;;;;;;;3.55;2.45;;;;;;;;;;5085457;28;20463;-30
2021/12/10 00:54:58;;;;;;;3.33;2.47;;;;;;;;;;5084824;28;20030;-30
2021/12/10 00:57:23;;;;;;;2.90;2.30;;;;;;;;;;5085237;28;20032;-30
2021/12/10 00:59:49;;;;;;;4.20;3.05;;;;;;;;;;5084889;28;20126;-35
2021/12/10 01:02:16;;;;;;;3.13;2.40;;;;;;;;;;5085211;28;20060;-29
2021/12/10 01:04:44;;;;;;;3.20;2.38;;;;;;;;;;5084744;28;20028;-29
2021/12/10 01:07:13;;;;;;;3.35;2.67;;;;;;;;;;5084700;28;20123;-33
2021/12/10 01:09:41;;;;;;;3.25;2.60;;;;;;;;;;5084951;28;20038;-27
2021/12/10 01:12:13;;;;;;;2.95;2.50;;;;;;;;;;5084607;28;20032;-30
2021/12/10 01:15:07;;;;;;;3.33;2.40;;;;;;;;;;5084925;28;20036;-30
2021/12/10 01:26:08;;;;;;;2.47;2.17;;;;;;;;;;5084655;28;20074;-28
2021/12/10 01:28:35;;;;;;;2.72;2.25;;;;;;;;;;5084654;28;20044;-31
2021/12/10 01:31:00;;;;;;;2.30;2.05;;;;;;;;;;5084042;28;20035;-30
2021/12/10 01:33:26;;;;;;;4.03;2.42;;;;;;;;;;5084381;28;20024;-30
2021/12/10 01:35:54;;;;;;;3.45;2.40;;;;;;;;;;5083968;28;20016;-28
2021/12/10 01:38:20;;;;;;;3.08;2.38;;;;;;;;;;5084242;28;20892;-28
2021/12/10 01:40:48;;;;;;;3.10;1.90;;;;;;;;;;5084138;28;20032;-32
2021/12/10 01:43:22;;;;;;;3.55;2.00;;;;;;;;;;5083991;28;20166;-27
2021/12/10 01:45:48;;;;;;;3.15;2.30;;;;;;;;;;5084502;28;20150;-30
2021/12/10 01:48:26;;;;;;;3.08;2.42;;;;;;;;;;5084280;28;20027;-28
2021/12/10 01:50:52;;;;;;;2.65;1.92;;;;;;;;;;5084143;28;20052;-32
2021/12/10 01:53:19;;;;;;;2.33;1.90;;;;;;;;;;5083985;28;20622;-29
2021/12/10 01:55:46;;;;;;;3.42;2.45;;;;;;;;;;5084358;28;20694;-28
2021/12/10 01:58:14;;;;;;;2.38;1.88;;;;;;;;;;5083610;28;20122;-30
2021/12/10 02:00:48;;;;;;;3.28;1.80;;;;;;;;;;5084251;28;20096;-29
2021/12/10 02:03:14;;;;;;;2.72;1.92;;;;;;;;;;5083447;28;20024;-27
2021/12/10 02:05:39;;;;;;;3.20;2.15;;;;;;;;;;5083618;28;20027;-33
2021/12/10 02:08:05;;;;;;;2.53;2.10;;;;;;;;;;5083392;28;20481;-29
2021/12/10 02:10:30;;;;;;;2.47;2.10;;;;;;;;;;5083234;28;20483;-29
2021/12/10 02:12:57;;;;;;;2.80;1.80;;;;;;;;;;5084056;28;20116;-33
2021/12/10 02:15:26;;;;;;;2.47;1.83;;;;;;;;;;5083155;28;20040;-30
2021/12/10 02:17:52;;;;;;;3.05;2.15;;;;;;;;;;5083385;28;20054;-31
2021/12/10 02:20:21;;;;;;;3.58;2.05;;;;;;;;;;5083385;28;20024;-28
2021/12/10 02:22:47;;;;;;;2.40;1.73;;;;;;;;;;5083470;28;20182;-29
2021/12/10 02:25:14;;;;;;;2.45;1.70;;;;;;;;;;5083414;28;20102;-33
2021/12/10 02:27:40;;;;;;;2.15;1.63;;;;;;;;;;5083699;28;20063;-30
2021/12/10 02:30:07;;;;;;;2.35;1.73;;;;;;;;;;5103894;28;20462;-28
2021/12/10 02:32:33;;;;;;;2.88;1.80;;;;;;;;;;5103701;28;20027;-28
2021/12/10 02:34:58;;;;;;;3.53;1.88;;;;;;;;;;5102654;28;20023;-27
2021/12/10 02:37:24;;;;;;;2.85;1.80;;;;;;;;;;5103062;28;20027;-29
2021/12/10 02:39:49;;;;;;;1.95;1.60;;;;;;;;;;5103154;28;20089;-27
2021/12/10 02:42:15;;;;;;;2.42;1.67;;;;;;;;;;5103250;28;20036;-30
2021/12/10 02:44:41;;;;;;;2.10;1.63;;;;;;;;;;5103423;28;20026;-27
2021/12/10 02:47:06;;;;;;;1.77;1.50;;;;;;;;;;5102803;28;20032;-28
2021/12/10 02:49:32;;;;;;;2.15;1.60;;;;;;;;;;5103566;28;20028;-28
2021/12/10 02:51:58;;;;;;;2.00;1.55;;;;;;;;;;5103059;28;20023;-27
2021/12/10 02:54:33;;;;;;;2.10;1.67;;;;;;;;;;5103147;28;20020;-30
2021/12/10 02:57:07;;;;;;;2.45;1.92;;;;;;;;;;5103095;28;20035;-30
2021/12/10 02:59:33;;;;;;;2.50;1.70;;;;;;;;;;5082864;28;20036;-30
2021/12/10 03:01:59;;;;;;;1.85;1.58;;;;;;;;;;5082692;28;20031;-28
2021/12/10 03:04:26;;;;;;;2.20;1.67;;;;;;;;;;5083262;28;20028;-29
2021/12/10 03:06:54;;;;;;;1.63;1.48;;;;;;;;;;5083158;28;20111;-30
2021/12/10 03:09:21;;;;;;;2.70;1.85;;;;;;;;;;5082865;28;20036;-31
2021/12/10 03:11:48;;;;;;;2.00;1.60;;;;;;;;;;5083417;28;20074;-31
2021/12/10 03:14:16;;;;;;;1.98;1.60;;;;;;;;;;5082367;28;20161;-30
2021/12/10 03:16:42;;;;;;;1.85;1.30;;;;;;;;;;5082496;28;20039;-33
2021/12/10 03:19:08;;;;;;;1.55;1.30;;;;;;;;;;5082348;28;20024;-32
2021/12/10 03:21:34;;;;;;;1.95;1.58;;;;;;;;;;5064934;28;20035;-31
2021/12/10 03:23:59;;;;;;;1.65;1.42;;;;;;;;;;5082355;28;20546;-28
2021/12/10 03:26:25;;;;;;;1.63;1.40;;;;;;;;;;5082888;28;20513;-28
2021/12/10 03:28:53;;;;;;;2.40;1.60;;;;;;;;;;5082971;28;20048;-27
2021/12/10 03:31:20;;;;;;;2.33;1.50;;;;;;;;;;5082810;28;20028;-29
2021/12/10 03:33:46;;;;;;;1.70;1.38;;;;;;;;;;5082944;28;20439;-28
2021/12/10 03:36:11;;;;;;;1.48;1.20;;;;;;;;;;5082520;28;20077;-28
2021/12/10 03:38:40;;;;;;;1.25;1.00;;;;;;;;;;5082641;28;20089;-28
2021/12/10 03:41:06;;;;;;;1.63;1.30;;;;;;;;;;5082626;28;20358;-28
2021/12/10 03:43:31;;;;;;;2.05;1.58;;;;;;;;;;5064509;28;20106;-34
2021/12/10 03:45:57;;;;;;;1.70;1.40;;;;;;;;;;5085143;28;20042;-27
2021/12/10 03:48:25;;;;;;;2.25;1.52;;;;;;;;;;5087256;28;20090;-28
2021/12/10 03:50:51;;;;;;;1.85;1.25;;;;;;;;;;5086148;28;20028;-29
2021/12/10 03:53:17;;;;;;;1.48;1.02;;;;;;;;;;5086029;28;20030;-28
2021/12/10 03:55:42;;;;;;;2.00;1.40;;;;;;;;;;5067825;28;20414;-29
2021/12/10 03:58:08;;;;;;;1.85;1.40;;;;;;;;;;5086056;28;20048;-31
2021/12/10 04:00:37;;;;;;;1.50;1.20;;;;;;;;;;5086491;28;20034;-29
2021/12/10 04:03:02;;;;;;;1.70;1.30;;;;;;;;;;5086600;28;20066;-33
2021/12/10 04:05:28;;;;;;;1.90;1.30;;;;;;;;;;5086551;28;20395;-27
2021/12/10 04:07:54;;;;;;;1.50;1.13;;;;;;;;;;5086150;28;20046;-27
2021/12/10 04:10:19;;;;;;;1.60;1.23;;;;;;;;;;5086524;28;20482;-33
2021/12/10 04:12:45;;;;;;;1.20;0.85;;;;;;;;;;5086058;28;20054;-30
2021/12/10 04:15:11;;;;;;;1.83;1.10;;;;;;;;;;5085983;28;20107;-29
2021/12/10 04:17:38;;;;;;;1.35;1.00;;;;;;;;;;5086342;28;20104;-28
2021/12/10 04:20:05;;;;;;;1.85;0.88;;;;;;;;;;5067849;28;20482;-27
2021/12/10 04:22:32;;;;;;;1.60;1.20;;;;;;;;;;5086150;28;20486;-28
2021/12/10 04:25:00;;;;;;;1.50;1.00;;;;;;;;;;5086271;28;20083;-30
2021/12/10 04:27:26;;;;;;;1.40;0.90;;;;;;;;;;5086050;28;20036;-30
2021/12/10 04:29:56;;;;;;;1.33;1.10;;;;;;;;;;5085839;28;20044;-29
2021/12/10 04:32:21;;;;;;;1.50;1.15;;;;;;;;;;5085675;28;20060;-27
2021/12/10 04:34:47;;;;;;;1.20;1.00;;;;;;;;;;5085503;28;20084;-28
2021/12/10 04:37:15;;;;;;;1.27;1.02;;;;;;;;;;5085385;28;20109;-30
2021/12/10 04:39:45;;;;;;;1.10;1.00;;;;;;;;;;5085815;28;20024;-30
2021/12/10 04:42:22;;;;;;;1.02;0.80;;;;;;;;;;5085871;28;20842;-29
2021/12/10 04:44:48;;;;;;;1.40;0.98;;;;;;;;;;5086493;28;20031;-30
2021/12/10 04:47:14;;;;;;;1.08;0.77;;;;;;;;;;5067632;28;20040;-29
2021/12/10 04:49:39;;;;;;;1.05;0.75;;;;;;;;;;5086130;28;20032;-31
2021/12/10 04:52:05;;;;;;;1.05;0.93;;;;;;;;;;5086211;28;20040;-31
2021/12/10 04:54:31;;;;;;;1.30;0.90;;;;;;;;;;5085888;28;20509;-28
2021/12/10 04:56:58;;;;;;;1.27;0.80;;;;;;;;;;5084635;28;20240;-28
2021/12/10 04:59:24;;;;;;;1.25;0.90;;;;;;;;;;5084617;28;20075;-27
2021/12/10 05:01:53;;;;;;;1.23;1.02;;;;;;;;;;5078116;28;20548;-28
2021/12/10 05:04:18;;;;;;;2.90;0.90;;;;;;;;;;5075910;28;20449;-29
2021/12/10 05:06:44;;;;;;;1.65;1.02;;;;;;;;;;5049662;28;20019;-27
2021/12/10 05:09:11;;;;;;;1.35;1.17;;;;;;;;;;5076070;28;20046;-29
2021/12/10 05:11:36;;;;;;;1.63;1.20;;;;;;;;;;5074845;28;20028;-29
2021/12/10 05:14:02;;;;;;;1.25;1.05;;;;;;;;;;5082105;28;20035;-30
2021/12/10 05:16:28;;;;;;;1.27;0.90;;;;;;;;;;5064416;28;20635;-28
2021/12/10 05:19:01;;;;;;;1.42;1.27;;;;;;;;;;5085024;28;20055;-30
2021/12/10 05:21:28;;;;;;;1.10;0.80;;;;;;;;;;5085164;28;20063;-28
2021/12/10 05:23:54;;;;;;;2.08;1.20;;;;;;;;;;5085183;28;20057;-32
2021/12/10 05:26:19;;;;;;;1.25;1.15;;;;;;;;;;5082935;28;20089;-28
2021/12/10 05:28:45;;;;;;;2.65;1.00;;;;;;;;;;5079160;28;20075;-29
2021/12/10 05:31:10;;;;;;;1.45;0.90;;;;;;;;;;5083974;28;20044;-30
2021/12/10 05:33:36;;;;;;;1.85;1.25;;;;;;;;;;5084173;28;20123;-32
2021/12/10 05:36:02;;;;;;;2.95;1.00;;;;;;;;;;5084058;28;20031;-28
2021/12/10 05:38:28;;;;;;;2.35;1.27;;;;;;;;;;5077536;28;20024;-32
2021/12/10 05:40:54;;;;;;;2.70;1.15;;;;;;;;;;5064105;28;20033;-28
2021/12/10 05:43:19;;;;;;;2.38;1.05;;;;;;;;;;5063961;28;20025;-30
2021/12/10 05:45:45;;;;;;;5.07;1.50;;;;;;;;;;5064308;28;20029;-30
2021/12/10 05:48:11;;;;;;;14.55;1.70;;;;;;;;;;5063657;28;20024;-29
2021/12/10 05:50:36;;;;;;;3.53;1.50;;;;;;;;;;5063780;28;20025;-29
2021/12/10 05:53:03;;;;;;;4.47;1.50;;;;;;;;;;5063648;28;20025;-28
2021/12/10 05:55:29;;;;;;;1.73;1.30;;;;;;;;;;5064330;28;20020;-33
2021/12/10 05:57:54;;;;;;;5.25;1.33;;;;;;;;;;5071832;28;20054;-28
2021/12/10 06:00:26;;;;;;;3.47;1.23;;;;;;;;;;5076033;28;20090;-28
2021/12/10 06:02:52;;;;;;;4.03;1.10;;;;;;;;;;5062222;28;20498;-31
2021/12/10 06:05:17;;;;;;;4.70;1.90;;;;;;;;;;5062500;28;20067;-32
2021/12/10 06:07:43;;;;;;;11.52;1.60;;;;;;;;;;5062865;28;20119;-29
2021/12/10 06:10:10;;;;;;;1.83;1.48;;;;;;;;;;5063438;28;20090;-31
2021/12/10 06:12:35;;;;;;;4.82;1.40;;;;;;;;;;5063292;28;20086;-34
2021/12/10 06:15:01;;;;;;;3.83;1.52;;;;;;;;;;5063235;28;20029;-27
2021/12/10 06:17:26;;;;;;;3.85;1.27;;;;;;;;;;5050919;28;20043;-30
2021/12/10 06:19:52;;;;;;;3.50;1.33;;;;;;;;;;5083832;28;20028;-32
2021/12/10 06:22:17;;;;;;;2.78;1.23;;;;;;;;;;5083199;28;20524;-30
2021/12/10 06:24:43;;;;;;;1.85;1.10;;;;;;;;;;5083644;28;20024;-30
2021/12/10 06:27:08;;;;;;;2.22;1.30;;;;;;;;;;5063278;28;20047;-32
2021/12/10 06:29:36;;;;;;;2.78;1.40;;;;;;;;;;5062860;28;20105;-30
2021/12/10 06:32:01;;;;;;;3.45;1.17;;;;;;;;;;5066136;28;20782;-27
2021/12/10 06:34:27;;;;;;;2.65;1.25;;;;;;;;;;5071067;28;20035;-28
2021/12/10 06:36:52;;;;;;;2.80;1.50;;;;;;;;;;5076110;28;20048;-27
2021/12/10 06:39:21;;;;;;;1.90;1.15;;;;;;;;;;5071712;28;20032;-28
2021/12/10 06:41:50;;;;;;;1.67;1.02;;;;;;;;;;5083385;28;20035;-29
2021/12/10 06:44:16;;;;;;;1.80;1.10;;;;;;;;;;5083224;28;20039;-33
2021/12/10 06:46:42;;;;;;;1.52;1.00;;;;;;;;;;5083165;28;20478;-31
2021/12/10 06:49:08;;;;;;;1.95;1.20;;;;;;;;;;5081611;28;20016;-32
2021/12/10 06:51:33;;;;;;;8.52;1.05;;;;;;;;;;5074704;28;20028;-34
2021/12/10 06:53:58;;;;;;;1.35;0.88;;;;;;;;;;5069360;28;20036;-31
2021/12/10 06:56:24;;;;;;;3.30;1.30;;;;;;;;;;5070181;28;20028;-30
2021/12/10 06:58:50;;;;;;;5.28;1.30;;;;;;;;;;5073457;28;20024;-29
2021/12/10 07:01:22;;;;;;;5.10;1.45;;;;;;;;;;5073167;28;20035;-35
2021/12/10 07:03:47;;;;;;;4.72;1.30;;;;;;;;;;5080021;28;20109;-28
2021/12/10 07:06:13;;;;;;;1.88;1.13;;;;;;;;;;5082225;28;20032;-31
2021/12/10 07:08:39;;;;;;;5.88;1.27;;;;;;;;;;5082387;28;20051;-27
2021/12/10 07:11:05;;;;;;;1.67;1.20;;;;;;;;;;5081951;28;20020;-27
2021/12/10 07:13:32;;;;;;;1.35;1.20;;;;;;;;;;5081914;28;20516;-28
2021/12/10 07:15:58;;;;;;;3.42;1.48;;;;;;;;;;5079250;28;20028;-34
2021/12/10 07:18:24;;;;;;;3.88;1.30;;;;;;;;;;5073907;28;20043;-36
2021/12/10 07:20:52;;;;;;;1.90;1.02;;;;;;;;;;5086588;28;20627;-31
2021/12/10 07:23:18;;;;;;;3.95;1.30;;;;;;;;;;5087946;28;20035;-31
2021/12/10 07:25:43;;;;;;;1.67;1.13;;;;;;;;;;5075831;28;20031;-29
2021/12/10 07:28:08;;;;;;;3.47;1.20;;;;;;;;;;5083570;28;20505;-30
2021/12/10 07:30:34;;;;;;;3.95;1.50;;;;;;;;;;5085952;28;20824;-31
2021/12/10 07:33:00;;;;;;;2.40;1.23;;;;;;;;;;5085977;28;20028;-35
2021/12/10 07:35:25;;;;;;;2.45;1.45;;;;;;;;;;5069089;28;20031;-29
2021/12/10 07:37:51;;;;;;;3.15;1.35;;;;;;;;;;5068724;28;20422;-32
2021/12/10 07:40:19;;;;;;;4.90;1.48;;;;;;;;;;5075534;28;20028;-30
2021/12/10 07:42:44;;;;;;;8.80;2.25;;;;;;;;;;5080649;28;20025;-34
2021/12/10 07:45:10;;;;;;;5.75;1.40;;;;;;;;;;5082437;28;20059;-35
2021/12/10 07:47:37;;;;;;;5.45;1.70;;;;;;;;;;5068079;28;20036;-32
2021/12/10 07:50:11;;;;;;;4.97;1.70;;;;;;;;;;5082404;28;20039;-32
2021/12/10 07:52:36;;;;;;;3.10;1.50;;;;;;;;;;5058425;28;20054;-30
2021/12/10 07:55:07;;;;;;;4.93;1.90;;;;;;;;;;5053723;28;20538;-29
2021/12/10 07:57:33;;;;;;;7.30;1.55;;;;;;;;;;5069613;28;20518;-30
2021/12/10 07:59:58;;;;;;;3.33;1.80;;;;;;;;;;5068713;28;20028;-29
2021/12/10 08:02:24;;;;;;;6.85;1.70;;;;;;;;;;5084493;28;20047;-31
2021/12/10 08:04:49;;;;;;;3.17;1.50;;;;;;;;;;5088851;28;20059;-29
2021/12/10 08:07:15;;;;;;;2.70;1.38;;;;;;;;;;5089156;28;20028;-32
2021/12/10 08:09:41;;;;;;;3.10;1.55;;;;;;;;;;5089197;28;20027;-30
2021/12/10 08:12:07;;;;;;;3.78;1.60;;;;;;;;;;5088074;28;20042;-31
2021/12/10 08:14:33;;;;;;;5.10;1.40;;;;;;;;;;5076155;28;20473;-32
2021/12/10 08:16:58;;;;;;;3.42;1.33;;;;;;;;;;5078431;28;20129;-33
2021/12/10 08:19:24;;;;;;;2.60;1.70;;;;;;;;;;5084813;28;20035;-34
2021/12/10 08:21:49;;;;;;;5.47;1.45;;;;;;;;;;5082934;28;20088;-28
2021/12/10 08:24:15;;;;;;;4.63;1.92;;;;;;;;;;5068287;28;20071;-28
2021/12/10 08:26:41;;;;;;;6.60;1.65;;;;;;;;;;5070922;28;20028;-31
2021/12/10 08:29:10;;;;;;;6.55;1.80;;;;;;;;;;5085866;28;20048;-28
2021/12/10 08:31:36;;;;;;;4.93;1.52;;;;;;;;;;5074249;28;20999;-32
2021/12/10 08:34:01;;;;;;;12.52;1.80;;;;;;;;;;5065251;28;20020;-32
2021/12/10 08:36:28;;;;;;;3.80;1.58;;;;;;;;;;5065671;28;20105;-29
2021/12/10 08:38:54;;;;;;;1.90;1.23;;;;;;;;;;5067975;28;20586;-30
2021/12/10 08:41:21;;;;;;;3.60;1.50;;;;;;;;;;5065114;28;20059;-30
2021/12/10 08:43:47;;;;;;;2.88;1.30;;;;;;;;;;5080648;28;20047;-29
2021/12/10 08:46:13;;;;;;;2.97;1.45;;;;;;;;;;5085850;28;20020;-29
2021/12/10 08:48:39;;;;;;;3.08;1.30;;;;;;;;;;5081320;28;20486;-33
2021/12/10 08:51:09;;;;;;;2.45;1.55;;;;;;;;;;5084612;28;20028;-32
2021/12/10 08:53:35;;;;;;;3.15;1.17;;;;;;;;;;5084847;28;20032;-29
2021/12/10 08:56:00;;;;;;;2.17;1.20;;;;;;;;;;5083537;28;20036;-30
2021/12/10 08:58:26;;;;;;;2.35;1.25;;;;;;;;;;5072942;28;20869;-32
2021/12/10 09:01:10;;;;;;;3.97;1.80;;;;;;;;;;5071211;28;20031;-35
2021/12/10 09:03:35;;;;;;;1.92;1.10;;;;;;;;;;5085153;28;20098;-30
2021/12/10 09:06:02;;;;;;;1.77;1.17;;;;;;;;;;5079168;28;20121;-29
2021/12/10 09:08:27;;;;;;;2.28;1.35;;;;;;;;;;5083959;28;20028;-31
2021/12/10 09:10:53;;;;;;;3.90;1.20;;;;;;;;;;5084235;28;20028;-30
2021/12/10 09:13:20;;;;;;;1.75;1.38;;;;;;;;;;5083877;28;20502;-29
2021/12/10 09:15:52;;;;;;;3.85;1.25;;;;;;;;;;5084448;28;20037;-35
2021/12/10 09:18:17;;;;;;;2.65;1.00;;;;;;;;;;5078017;28;20051;-33
2021/12/10 09:20:45;;;;;;;7.57;1.50;;;;;;;;;;5064270;28;20024;-31
2021/12/10 09:23:13;;;;;;;3.53;1.30;;;;;;;;;;5064398;28;20036;-29
2021/12/10 09:25:38;;;;;;;1.17;0.90;;;;;;;;;;5064085;28;20807;-29
2021/12/10 09:28:04;;;;;;;2.90;1.00;;;;;;;;;;5063926;28;20031;-29
2021/12/10 09:30:31;;;;;;;2.25;1.10;;;;;;;;;;5064304;28;20112;-28
2021/12/10 09:32:56;;;;;;;1.52;1.00;;;;;;;;;;5063965;28;20509;-31
2021/12/10 09:35:24;;;;;;;2.88;1.08;;;;;;;;;;5067745;28;20027;-30
2021/12/10 09:37:49;;;;;;;1.40;0.90;;;;;;;;;;5083569;28;20537;-28
2021/12/10 09:40:21;;;;;;;2.03;1.30;;;;;;;;;;5084192;28;20089;-29
2021/12/10 09:42:47;;;;;;;1.58;1.00;;;;;;;;;;5083500;28;20036;-32
2021/12/10 09:45:14;;;;;;;1.75;0.93;;;;;;;;;;5065549;28;20034;-29
2021/12/10 09:47:40;;;;;;;1.30;1.00;;;;;;;;;;5084125;28;20038;-34
2021/12/10 09:50:06;;;;;;;1.77;0.98;;;;;;;;;;5083730;28;20529;-30
2021/12/10 09:52:31;;;;;;;2.03;1.00;;;;;;;;;;5083486;28;20024;-32
2021/12/10 09:54:57;;;;;;;0.85;0.60;;;;;;;;;;5068287;28;20705;-29
2021/12/10 09:57:27;;;;;;;2.88;0.90;;;;;;;;;;5082958;28;20036;-30
2021/12/10 09:59:53;;;;;;;0.88;0.70;;;;;;;;;;5074675;28;20626;-35
2021/12/10 10:02:20;;;;;;;1.13;0.90;;;;;;;;;;5063619;28;20103;-28
2021/12/10 10:04:49;;;;;;;1.17;0.70;;;;;;;;;;5063684;28;20029;-28
2021/12/10 10:07:16;;;;;;;1.23;0.68;;;;;;;;;;5067887;28;20060;-31
2021/12/10 10:09:43;;;;;;;2.58;0.80;;;;;;;;;;5083428;28;20030;-32
2021/12/10 10:12:11;;;;;;;1.02;0.77;;;;;;;;;;5083667;28;20036;-28
2021/12/10 10:14:38;;;;;;;2.13;0.80;;;;;;;;;;5083553;28;20027;-30
2021/12/10 10:17:04;;;;;;;0.88;0.80;;;;;;;;;;5083397;28;20557;-32
2021/12/10 10:19:29;;;;;;;0.80;0.70;;;;;;;;;;5083680;28;20026;-32
2021/12/10 10:21:56;;;;;;;0.80;0.70;;;;;;;;;;5082930;28;20024;-30
2021/12/10 10:24:23;;;;;;;1.23;0.60;;;;;;;;;;5079910;28;20097;-30
2021/12/10 10:26:53;;;;;;;0.55;0.47;;;;;;;;;;5082911;28;20485;-32
2021/12/10 10:29:20;;;;;;;5.45;0.80;;;;;;;;;;5083050;28;20130;-29
2021/12/10 10:31:50;;;;;;;1.25;0.70;;;;;;;;;;5083121;28;20032;-30
2021/12/10 10:34:15;;;;;;;0.70;0.60;;;;;;;;;;5081015;28;20035;-29
2021/12/10 10:36:41;;;;;;;1.25;0.63;;;;;;;;;;5075547;28;20040;-31
2021/12/10 10:39:15;;;;;;;0.80;0.60;;;;;;;;;;5077228;28;20202;-33
2021/12/10 10:41:42;;;;;;;0.80;0.60;;;;;;;;;;5082319;28;20032;-29
2021/12/10 10:44:08;;;;;;;0.95;0.60;;;;;;;;;;5057959;28;20028;-29
2021/12/10 10:46:33;;;;;;;0.75;0.50;;;;;;;;;;5063009;28;20038;-33
2021/12/10 10:48:59;;;;;;;1.73;0.80;;;;;;;;;;5062213;28;20024;-30
2021/12/10 10:51:34;;;;;;;1.20;0.70;;;;;;;;;;5062618;28;20411;-30
2021/12/10 10:54:01;;;;;;;0.88;0.60;;;;;;;;;;5062758;28;20036;-35
2021/12/10 10:56:34;;;;;;;0.68;0.63;;;;;;;;;;5061889;28;20024;-31
2021/12/10 10:59:03;;;;;;;2.60;0.55;;;;;;;;;;5062423;28;20142;-32
2021/12/10 11:01:40;;;;;;;0.88;0.55;;;;;;;;;;5075741;28;20054;-32
2021/12/10 11:04:18;;;;;;;1.00;0.60;;;;;;;;;;5077966;28;20028;-29
2021/12/10 11:06:46;;;;;;;0.88;0.68;;;;;;;;;;5082585;28;20125;-31
2021/12/10 11:09:14;;;;;;;0.68;0.57;;;;;;;;;;5082365;28;20113;-29
2021/12/10 11:11:55;;;;;;;0.73;0.60;;;;;;;;;;5082198;28;20506;-32
2021/12/10 11:14:28;;;;;;;0.60;0.50;;;;;;;;;;5081275;28;20502;-29
2021/12/10 11:16:54;;;;;;;;;;;;;;;;;;5082631;28;20078;-33
2021/12/10 11:19:22;;;;;;;0.85;0.50;;;;;;;;;;5082406;28;19923;-30
2021/12/10 11:21:47;;;;;;;0.60;0.50;;;;;;;;;;5082265;28;20236;-31
2021/12/10 11:24:20;;;;;;;0.93;0.55;;;;;;;;;;5082335;28;20508;-29
2021/12/10 11:26:57;;;;;;;0.63;0.50;;;;;;;;;;5082055;28;20060;-29
2021/12/10 11:29:44;;;;;;;1.30;0.75;;;;;;;;;;5081579;28;20071;-30
2021/12/10 11:32:25;;;;;;;0.65;0.47;;;;;;;;;;5079914;28;20032;-29
2021/12/10 11:34:52;;;;;;;0.40;0.40;;;;;;;;;;5072529;28;20028;-28
2021/12/10 11:37:39;;;;;;;0.80;0.63;;;;;;;;;;5071473;28;20502;-30
2021/12/10 11:40:34;;;;;;;0.52;0.50;;;;;;;;;;5081977;28;20134;-29
2021/12/10 11:48:50;;;;;;;0.40;0.40;;;;;;;;;;5082796;28;20075;-28
2021/12/10 11:51:27;;;;;;;2.42;0.50;;;;;;;;;;5065573;28;20067;-29
2021/12/10 11:54:07;;;;;;;2.13;0.60;;;;;;;;;;5044742;28;20021;-30
2021/12/10 11:56:42;;;;;;;2.33;0.68;;;;;;;;;;5061891;28;20032;-30
2021/12/10 11:59:40;;;;;;;1.25;0.68;;;;;;;;;;5061803;28;20024;-30
2021/12/10 12:02:09;;;;;;;5.57;0.60;;;;;;;;;;5015871;28;20503;-32
2021/12/10 12:04:38;;;;;;;2.30;0.60;;;;;;;;;;5061289;28;20590;-28
2021/12/10 12:07:36;;;;;;;0.65;0.57;;;;;;;;;;5064176;28;20487;-28
2021/12/10 12:10:23;;;;;;;0.65;0.55;;;;;;;;;;5065429;28;20112;-31
2021/12/10 12:12:55;;;;;;;0.55;0.40;;;;;;;;;;5065377;28;20020;-33
2021/12/10 12:15:23;;;;;;;0.65;0.52;;;;;;;;;;5064723;28;20032;-29
2021/12/10 12:17:54;;;;;;;3.75;0.50;;;;;;;;;;5085586;28;20131;-28
2021/12/10 12:26:35;;;;;;;2.78;0.40;;;;;;;;;;5069835;28;20059;-30
2021/12/10 12:29:11;;;;;;;0.80;0.50;;;;;;;;;;5064916;28;20854;-33
2021/12/10 12:31:45;;;;;;;0.55;0.45;;;;;;;;;;5066128;28;20024;-30
2021/12/10 12:34:18;;;;;;;0.80;0.40;;;;;;;;;;5064484;28;20024;-27
2021/12/10 12:37:04;;;;;;;2.80;0.50;;;;;;;;;;5064427;28;20490;-27
2021/12/10 12:39:32;;;;;;;1.15;0.50;;;;;;;;;;5069824;28;20452;-28
2021/12/10 12:41:58;;;;;;;0.73;0.30;;;;;;;;;;5079661;28;20050;-27
2021/12/10 12:44:26;;;;;;;1.42;0.43;;;;;;;;;;5084739;28;20028;-30
2021/12/10 12:47:08;;;;;;;0.90;0.60;;;;;;;;;;5084750;28;20032;-30
2021/12/10 12:50:05;;;;;;;0.65;0.50;;;;;;;;;;5084450;28;20035;-34
2021/12/10 12:52:47;;;;;;;1.00;0.50;;;;;;;;;;5084353;28;20059;-28
2021/12/10 12:55:31;;;;;;;1.00;0.60;;;;;;;;;;5066098;28;20063;-34
2021/12/10 12:58:09;;;;;;;3.88;0.52;;;;;;;;;;5079944;28;20093;-32
2021/12/10 13:00:50;;;;;;;0.82;0.28;;;;;;;;;;5084683;28;20024;-30
2021/12/10 13:03:32;;;;;;;0.70;0.40;;;;;;;;;;5081829;28;20746;-30
2021/12/10 13:06:22;;;;;;;1.30;0.50;;;;;;;;;;5084927;28;20115;-28
2021/12/10 13:09:08;;;;;;;0.63;0.40;;;;;;;;;;5084751;28;20043;-29
2021/12/10 13:11:50;;;;;;;1.45;0.30;;;;;;;;;;5080639;28;20789;-29
2021/12/10 13:14:19;;;;;;;1.25;0.45;;;;;;;;;;5064568;28;20055;-29
2021/12/10 13:16:54;;;;;;;3.55;0.50;;;;;;;;;;5064440;28;20043;-29
2021/12/10 13:19:29;;;;;;;0.50;0.38;;;;;;;;;;5063582;28;20086;-27
2021/12/10 13:21:59;;;;;;;2.25;0.40;;;;;;;;;;5063910;28;20028;-30
2021/12/10 13:24:25;;;;;;;0.98;0.40;;;;;;;;;;5064064;28;20065;-30
2021/12/10 13:26:50;;;;;;;0.70;0.40;;;;;;;;;;5064792;28;20033;-28
2021/12/10 13:29:16;;;;;;;0.82;0.40;;;;;;;;;;5083739;28;20048;-31
2021/12/10 13:31:42;;;;;;;2.00;0.50;;;;;;;;;;5083718;28;20027;-30
2021/12/10 13:34:08;;;;;;;0.85;0.40;;;;;;;;;;5073723;28;20033;-28
2021/12/10 13:36:33;;;;;;;0.60;0.40;;;;;;;;;;5063664;28;20032;-32
2021/12/10 13:38:59;;;;;;;10.13;0.68;;;;;;;;;;5063470;28;20028;-30
2021/12/10 13:41:28;;;;;;;0.52;0.30;;;;;;;;;;5063676;28;20040;-29
2021/12/10 13:44:01;;;;;;;0.63;0.30;;;;;;;;;;5063605;28;20032;-29
2021/12/10 13:46:32;;;;;;;0.65;0.52;;;;;;;;;;5064386;28;20765;-33
2021/12/10 13:48:59;;;;;;;2.55;0.40;;;;;;;;;;5070586;28;20922;-27
2021/12/10 13:51:27;;;;;;;0.70;0.40;;;;;;;;;;5080226;28;20024;-32
2021/12/10 13:54:06;;;;;;;0.35;0.30;;;;;;;;;;5077825;28;20032;-30
2021/12/10 13:56:31;;;;;;;0.40;0.40;;;;;;;;;;5078697;28;20033;-30
2021/12/10 13:59:01;;;;;;;2.10;0.32;;;;;;;;;;5082099;28;20050;-33
2021/12/10 14:01:34;;;;;;;3.65;0.60;;;;;;;;;;5078662;28;20024;-29
2021/12/10 14:04:00;;;;;;;2.85;0.50;;;;;;;;;;5065442;28;20115;-26
2021/12/10 14:06:32;;;;;;;2.30;0.70;;;;;;;;;;5069747;28;20513;-29
2021/12/10 14:09:06;;;;;;;0.60;0.50;;;;;;;;;;5062608;28;20044;-36
2021/12/10 14:11:51;;;;;;;0.63;0.50;;;;;;;;;;5063849;28;20054;-30
2021/12/10 14:14:16;;;;;;;1.20;0.75;;;;;;;;;;5063063;28;20037;-28
2021/12/10 14:16:52;;;;;;;0.93;0.55;;;;;;;;;;5064076;28;20129;-31
2021/12/10 14:19:41;;;;;;;2.13;0.77;;;;;;;;;;5063263;28;20020;-32
2021/12/10 14:22:08;;;;;;;1.08;0.80;;;;;;;;;;5063214;28;20028;-29
2021/12/10 14:24:46;;;;;;;0.93;0.82;;;;;;;;;;5064687;28;20089;-32
2021/12/10 14:27:21;;;;;;;2.20;0.93;;;;;;;;;;5082532;28;20028;-29
2021/12/10 14:30:09;;;;;;;1.55;1.00;;;;;;;;;;5082084;28;20052;-31
2021/12/10 14:32:35;;;;;;;1.50;1.20;;;;;;;;;;5063788;28;20438;-29
2021/12/10 14:35:23;;;;;;;1.83;1.23;;;;;;;;;;5062059;28;20036;-32
2021/12/10 14:38:00;;;;;;;1.70;1.20;;;;;;;;;;5045098;28;20549;-34
2021/12/10 14:40:29;;;;;;;2.45;1.50;;;;;;;;;;5077147;28;20032;-32
2021/12/10 14:43:13;;;;;;;1.48;1.25;;;;;;;;;;5082539;28;20092;-28
2021/12/10 14:45:54;;;;;;;1.77;1.30;;;;;;;;;;5083067;28;20123;-28
2021/12/10 14:48:20;;;;;;;1.85;1.40;;;;;;;;;;5083216;28;20476;-28
2021/12/10 14:51:12;;;;;;;1.88;1.50;;;;;;;;;;5064335;28;20028;-30
2021/12/10 14:53:45;;;;;;;1.95;1.38;;;;;;;;;;5082996;28;20031;-29
2021/12/10 14:56:21;;;;;;;1.83;1.10;;;;;;;;;;5082292;28;20081;-31
2021/12/10 14:59:04;;;;;;;1.50;1.10;;;;;;;;;;5083226;28;20107;-30
2021/12/10 15:01:29;;;;;;;;;;;;;;;;;;5081371;28;20035;-31
2021/12/10 15:03:55;;;;;;;4.50;1.48;;;;;;;;;;5076323;28;19920;-33
2021/12/10 15:06:22;;;;;;;3.22;1.05;;;;;;;;;;5078891;28;20038;-31
2021/12/10 15:08:57;;;;;;;5.03;1.20;;;;;;;;;;5080668;28;20428;-31
2021/12/10 15:11:41;;;;;;;2.08;1.20;;;;;;;;;;5075980;28;20028;-29
2021/12/10 15:14:25;;;;;;;2.20;1.50;;;;;;;;;;5082463;28;20039;-32